• Join FlightAware (Why Join?)
  • Login
  • US Flag 
11:03AM EDT


 

Airport Tracker/Info


-or-


 

Live Flight TrackerFlight Track Log ✈ UPS1131 ✈ 01-Jul-2013 ✈ KBUF - KPHL

Flight Track Log - Related Links

Times and Time Zones

All times are in EDT time to prevent confusion due to time zone crossing. See the UPS1131 flight status page for this flight to view local times or setup timezone preferences in your user account.

Time Position Orientation Groundspeed Altitude Reporting Facility
EDT Latitude Longitude Course Direction KTS MPH feet Rate Location/Type
11:32PM 42.9450 -78.7240 118° Southeast 141 162 1,400  Level FlightAware
11:32PM 42.9520 -78.7150 43° Northeast 127 146 2,400 1,620 Climbing FlightAware
11:33PM 42.9640 -78.6950 51° Northeast 160 184 2,600 540 Climbing FlightAware
11:33PM 42.9610 -78.6810 106° East 186 214 2,800 1,560 Climbing FlightAware
11:33PM 42.9510 -78.6690 139° Southeast 208 239 3,400 2,760 Climbing FlightAware
11:34PM 42.9390 -78.6650 166° South 222 255 4,100 3,000 Climbing FlightAware
11:34PM 42.9130 -78.6650 180° South 248 285 5,200 3,000 Climbing FlightAware
11:35PM 42.8750 -78.6610 176° South 274 315 6,800 3,540 Climbing FlightAware
11:35PM 42.8330 -78.6600 179° South 276 318 8,900 3,540 Climbing FlightAware
11:36PM 42.7940 -78.6580 178° South 296 341 10,500 2,400 Climbing FlightAware
11:36PM 42.7250 -78.6550 178° South 346 398 12,000 2,460 Climbing FlightAware
11:37PM 42.6600 -78.6510 177° South 357 411 14,100 3,120 Climbing FlightAware
11:38PM 42.5880 -78.6480 178° South 364 419 16,400 3,000 Climbing FlightAware
11:38PM 42.5190 -78.6380 174° South 375 432 18,300 2,580 Climbing FlightAware
11:39PM 42.4600 -78.5850 146° Southeast 395 455 20,000 2,400 Climbing FlightAware
11:40PM 42.3970 -78.5060 137° Southeast 407 468 21,800 2,400 Climbing FlightAware
11:40PM 42.3550 -78.4530 137° Southeast 410 472 23,100 2,460 Climbing FlightAware
11:41PM 42.3020 -78.3870 137° Southeast 411 473 24,700 2,520 Climbing FlightAware
11:42PM 42.2320 -78.3000 137° Southeast 407 468 26,800 1,680 Climbing FlightAware
11:42PM 42.1890 -78.2460 137° Southeast 416 479 27,000 120 Climbing FlightAware
11:43PM 42.1230 -78.1650 138° Southeast 450 518 27,000  Level FlightAware
11:44PM 42.0610 -78.0880 137° Southeast 455 524 27,000  Level FlightAware
11:44PM 41.9940 -78.0050 137° Southeast 459 528 27,000  Level FlightAware
11:45PM 41.9360 -77.9330 137° Southeast 459 528 27,000  Level FlightAware
11:46PM 41.8730 -77.8550 137° Southeast 462 532 27,000  Level FlightAware
11:46PM 41.8120 -77.7810 138° Southeast 461 531 27,000  Level FlightAware
11:47PM 41.7420 -77.6970 138° Southeast 456 525 27,000  Level FlightAware
11:48PM 41.6690 -77.6090 138° Southeast 453 521 27,000  Level FlightAware
11:49PM 41.6070 -77.5340 138° Southeast 452 520 27,000  Level FlightAware
11:49PM 41.5370 -77.4500 138° Southeast 452 520 27,000  Level FlightAware
11:50PM 41.4760 -77.3770 138° Southeast 451 519 27,000  Level FlightAware
11:50PM 41.4467 -77.3414 138° Southeast 452 520 27,000  Level FlightAware ADS-B
11:51PM 41.3961 -77.2806 138° Southeast 453 521 27,000  Level FlightAware ADS-B
11:51PM 41.3480 -77.2230 138° Southeast 455 524 27,000  Level FlightAware ADS-B
11:52PM 41.2996 -77.1650 138° Southeast 455 524 27,000  Level FlightAware ADS-B
11:52PM 41.2422 -77.0967 138° Southeast 456 525 27,000  Level FlightAware ADS-B
11:53PM 41.1906 -77.0354 138° Southeast 457 526 27,000  Level FlightAware ADS-B
11:54PM 41.1406 -76.9761 138° Southeast 459 528 27,000  Level FlightAware ADS-B
11:54PM 41.0901 -76.9163 138° Southeast 461 531 27,000  Level FlightAware ADS-B
11:55PM 41.0416 -76.8591 138° Southeast 463 533 27,000  Level FlightAware ADS-B
11:55PM 40.9932 -76.8020 138° Southeast 464 534 27,000  Level FlightAware ADS-B
11:56PM 40.9443 -76.7447 138° Southeast 463 533 27,000  Level FlightAware ADS-B
11:56PM 40.8934 -76.6849 138° Southeast 463 533 27,000 -780 Level FlightAware ADS-B
11:57PM 40.8456 -76.6288 138° Southeast 449 517 26,200 -2,340 Descending FlightAware ADS-B
11:57PM 40.7994 -76.5746 138° Southeast 442 509 24,700 -2,520 Descending FlightAware ADS-B
11:58PM 40.7541 -76.5215 138° Southeast 434 499 23,700 -2,040 Descending FlightAware ADS-B
11:58PM 40.7090 -76.4683 138° Southeast 427 491 22,700 -1,740 Descending FlightAware ADS-B
11:59PM 40.6646 -76.4166 139° Southeast 419 482 22,000 -1,500 Descending FlightAware ADS-B
11:59PM 40.6215 -76.3665 139° Southeast 412 474 21,200 -1,620 Descending FlightAware ADS-B
12:00AM 40.5779 -76.3158 139° Southeast 409 471 20,400 -1,500 Descending FlightAware ADS-B
12:00AM 40.5351 -76.2661 139° Southeast 408 470 19,700 -1,440 Descending FlightAware ADS-B
12:01AM 40.4922 -76.2163 139° Southeast 410 472 19,000 -1,500 Descending FlightAware ADS-B
12:01AM 40.4498 -76.1674 139° Southeast 401 461 18,200 -1,680 Descending FlightAware ADS-B
12:02AM 40.4080 -76.1190 139° Southeast 393 452 17,300 -1,920 Descending FlightAware ADS-B
12:02AM 40.3670 -76.0716 139° Southeast 391 450 16,300 -2,100 Descending FlightAware ADS-B
12:03AM 40.3261 -76.0246 139° Southeast 387 445 15,200 -2,280 Descending FlightAware ADS-B
12:03AM 40.2840 -75.9764 139° Southeast 381 438 14,000 -2,340 Descending FlightAware ADS-B
12:04AM 40.2437 -75.9304 139° Southeast 370 426 12,800 -2,280 Descending FlightAware ADS-B
12:04AM 40.2052 -75.8866 139° Southeast 359 413 11,700 -2,400 Descending FlightAware ADS-B
12:04AM 40.1842 -75.8630 139° Southeast 354 407 10,900 -2,400 Descending FlightAware ADS-B
12:05AM 40.1512 -75.8353 147° Southeast 348 400 10,100 -1,440 Descending FlightAware ADS-B
12:05AM 40.1298 -75.8194 150° Southeast 346 398 10,000 -420 Descending FlightAware ADS-B
12:05AM 40.1082 -75.8030 150° Southeast 346 398 9,900 -240 Descending FlightAware ADS-B
12:06AM 40.0873 -75.7867 149° Southeast 346 398 9,900  Level FlightAware ADS-B
12:06AM 40.0662 -75.7698 148° Southeast 324 373 9,900  Level FlightAware ADS-B
12:06AM 40.0472 -75.7545 148° Southeast 303 349 9,900 -240 Level FlightAware ADS-B
12:06AM 40.0303 -75.7407 148° Southeast 277 319 9,800 -1,380 Descending FlightAware ADS-B
12:07AM 40.0127 -75.7266 148° Southeast 265 305 9,200 -2,400 Descending FlightAware ADS-B
12:07AM 40.0000 -75.7166 149° Southeast 261 300 8,700 -2,580 Descending FlightAware ADS-B
12:07AM 39.9838 -75.7038 149° Southeast 260 299 8,000 -2,760 Descending FlightAware ADS-B
12:07AM 39.9681 -75.6912 148° Southeast 261 300 7,300 -2,820 Descending FlightAware ADS-B
12:08AM 39.9524 -75.6785 148° Southeast 261 300 6,600 -2,940 Descending FlightAware ADS-B
12:08AM 39.9365 -75.6656 148° Southeast 260 299 5,800 -2,520 Descending FlightAware ADS-B
12:08AM 39.9210 -75.6527 147° Southeast 252 290 5,300 -1,560 Descending FlightAware ADS-B
12:08AM 39.9057 -75.6400 148° Southeast 237 273 5,000 -1,260 Descending FlightAware ADS-B
12:09AM 39.8894 -75.6265 148° Southeast 226 260 4,600 -1,320 Descending FlightAware ADS-B
12:09AM 39.8810 -75.6195 147° Southeast 225 259 4,400 -1,260 Descending FlightAware ADS-B
12:09AM 39.8684 -75.6089 147° Southeast 222 255 4,100 -1,080 Descending FlightAware ADS-B
12:09AM 39.8563 -75.5991 148° Southeast 222 255 3,900 -1,080 Descending FlightAware ADS-B
12:09AM 39.8534 -75.5966 147° Southeast 222 255 3,800 -1,740 Descending FlightAware ADS-B
12:10AM 39.8504 -75.5936 142° Southeast 224 258 3,700 -900 Descending FlightAware ADS-B
12:10AM 39.8479 -75.5904 135° Southeast 226 260 3,700 -1,020 Level FlightAware ADS-B
12:10AM 39.8459 -75.5872 129° Southeast 227 261 3,600 -780 Descending FlightAware ADS-B
12:10AM 39.8435 -75.5821 122° Southeast 229 264 3,600 -720 Level FlightAware ADS-B
12:10AM 39.8418 -75.5772 114° Southeast 232 267 3,500 -900 Descending FlightAware ADS-B
12:10AM 39.8407 -75.5730 109° East 234 269 3,500 -720 Level FlightAware ADS-B
12:10AM 39.8389 -75.5642 105° East 235 270 3,400 -600 Descending FlightAware ADS-B
12:10AM 39.8352 -75.5432 103° East 230 265 3,300 -600 Descending FlightAware ADS-B
12:10AM 39.8318 -75.5229 102° East 223 257 3,100 -660 Descending FlightAware ADS-B
12:11AM 39.8288 -75.5054 103° East 216 249 3,000 -420 Descending FlightAware ADS-B
12:11AM 39.8257 -75.4863 102° East 204 235 2,900 -300 Descending FlightAware ADS-B
12:11AM 39.8241 -75.4761 102° East 196 226 2,900  Level FlightAware ADS-B
12:11AM 39.8237 -75.4715 96° East 194 223 2,900 -780 Level FlightAware ADS-B
12:11AM 39.8235 -75.4678 94° East 193 222 2,800 -780 Descending FlightAware ADS-B
12:11AM 39.8237 -75.4631 87° East 192 221 2,800 -780 Level FlightAware ADS-B
12:11AM 39.8242 -75.4581 83° East 190 219 2,700 -1,200 Descending FlightAware ADS-B
12:11AM 39.8255 -75.4510 77° East 190 219 2,600 -900 Descending FlightAware ADS-B
12:12AM 39.8287 -75.4354 75° East 183 211 2,400 -840 Descending FlightAware ADS-B
12:12AM 39.8318 -75.4199 75° East 177 204 2,200 -1,020 Descending FlightAware ADS-B
12:12AM 39.8350 -75.4040 75° East 166 191 1,900 -960 Descending FlightAware ADS-B
12:12AM 39.8368 -75.3949 76° East 158 182 1,800 -720 Descending FlightAware ADS-B
12:12AM 39.8383 -75.3876 75° East 152 175 1,700 -780 Descending FlightAware ADS-B
12:13AM 39.8410 -75.3741 75° East 144 166 1,500 -780 Descending FlightAware ADS-B
12:13AM 39.8435 -75.3616 75° East 138 159 1,300 -720 Descending FlightAware ADS-B
12:13AM 39.8452 -75.3534 75° East 138 159 1,200 -660 Descending FlightAware ADS-B
12:13AM 39.8465 -75.3466 76° East 135 155 1,100 -780 Descending FlightAware ADS-B
12:13AM 39.8476 -75.3409 76° East 132 152 1,000 -960 Descending FlightAware ADS-B
12:14AM 39.8484 -75.3369 75° East 130 150 900 -600 Descending FlightAware ADS-B
12:14AM 39.8494 -75.3321 75° East 129 148 900 -720 Level FlightAware ADS-B
12:14AM 39.8511 -75.3240 75° East 127 146 700 -840 Descending FlightAware ADS-B
12:14AM 39.8528 -75.3154 76° East 126 145 600 -600 Descending FlightAware ADS-B
12:14AM 39.8541 -75.3085 76° East 126 145 500 -720 Descending FlightAware ADS-B
12:14AM 39.8555 -75.3018 75° East 125 144 400 -720 Descending FlightAware ADS-B
12:14AM 39.8567 -75.2958 75° East 125 144 300  Descending FlightAware ADS-B
12:15AM 39.8608 -75.2736 75° East 131 151 400 11,520 Climbing New York Center
12:16AM 39.8689 -75.2281 77° East 131 151 18,000 17,580 Climbing New York Center